Time;durP1;ratioP1;P1;durP2;ratioP2;P2;SDS_P1;SDS_P2;PMS_P1;PMS_P2;Temp;Humidity;BMP_temperature;BMP_pressure;BME280_temperature;BME280_humidity;BME280_pressure;Samples;Min_cycle;Max_cycle;Signal;HPM_P1;HPM_P2
2022/07/31 00:01:08;;;;;;;10.20;4.82;;;18.70;99.90;;;;;;5095536;27;20598;-89
2022/07/31 00:03:34;;;;;;;5.57;4.40;;;18.60;99.90;;;;;;5092128;27;20053;-88
2022/07/31 00:06:00;;;;;;;7.30;4.47;;;18.50;99.90;;;;;;5072198;27;20506;-87
2022/07/31 00:08:26;;;;;;;10.15;4.05;;;18.50;99.90;;;;;;5071094;27;20043;-88
2022/07/31 00:10:52;;;;;;;9.18;4.32;;;18.50;99.90;;;;;;5089627;27;20090;-88
2022/07/31 00:13:18;;;;;;;6.78;4.00;;;18.50;99.90;;;;;;5107401;27;20303;-88
2022/07/31 00:15:47;;;;;;;6.70;4.22;;;18.40;99.90;;;;;;5074493;27;20050;-88
2022/07/31 00:18:13;;;;;;;6.15;3.85;;;18.40;99.90;;;;;;5090360;27;20039;-88
2022/07/31 00:20:39;;;;;;;8.82;3.95;;;18.40;99.90;;;;;;5092882;27;20051;-89
2022/07/31 00:23:05;;;;;;;5.45;3.80;;;18.40;99.90;;;;;;5097166;27;20047;-89
2022/07/31 00:25:31;;;;;;;4.78;4.18;;;18.40;99.90;;;;;;5071829;27;20039;-89
2022/07/31 00:27:58;;;;;;;8.40;4.35;;;18.30;99.90;;;;;;5073762;27;20035;-88
2022/07/31 00:30:24;;;;;;;6.22;4.47;;;18.30;99.90;;;;;;5040204;27;20562;-88
2022/07/31 00:32:50;;;;;;;6.75;4.07;;;18.20;99.90;;;;;;5059405;27;20043;-88
2022/07/31 00:35:17;;;;;;;6.45;3.42;;;18.30;99.90;;;;;;5090063;27;20046;-88
2022/07/31 00:37:43;;;;;;;7.93;3.80;;;18.20;99.90;;;;;;5088617;27;20455;-89
2022/07/31 00:40:12;;;;;;;6.47;4.25;;;18.10;99.90;;;;;;5076644;27;20103;-89
2022/07/31 00:42:40;;;;;;;6.22;3.97;;;18.10;99.90;;;;;;5070010;27;20058;-88
2022/07/31 00:45:08;;;;;;;5.10;3.85;;;18.10;99.90;;;;;;5089044;27;20090;-88
2022/07/31 00:47:34;;;;;;;7.53;4.00;;;18.10;99.90;;;;;;5083004;27;20120;-87
2022/07/31 00:50:01;;;;;;;9.43;4.15;;;18.10;99.90;;;;;;5085780;28;20040;-88
2022/07/31 00:52:27;;;;;;;5.35;3.90;;;18.00;99.90;;;;;;5072363;27;20515;-88
2022/07/31 00:54:54;;;;;;;8.70;4.18;;;18.00;99.90;;;;;;5071815;27;20138;-86
2022/07/31 00:57:20;;;;;;;5.47;3.90;;;18.00;99.90;;;;;;5070115;27;20080;-89
2022/07/31 00:59:46;;;;;;;8.18;4.65;;;17.90;99.90;;;;;;5066092;27;20539;-88
2022/07/31 01:02:13;;;;;;;5.95;3.70;;;17.90;99.90;;;;;;5107190;27;20039;-88
2022/07/31 01:04:39;;;;;;;6.72;3.63;;;17.90;99.90;;;;;;5070053;27;20130;-89
2022/07/31 01:07:05;;;;;;;7.57;3.90;;;17.90;99.90;;;;;;5084098;27;20842;-88
2022/07/31 01:09:32;;;;;;;6.45;3.78;;;17.80;99.90;;;;;;5083717;27;20121;-88
2022/07/31 01:12:23;;;;;;;4.38;3.35;;;17.80;99.90;;;;;;5082133;27;20043;-88
2022/07/31 01:14:52;;;;;;;4.93;3.90;;;17.70;99.90;;;;;;5082649;27;20066;-88
2022/07/31 01:17:21;;;;;;;9.43;4.20;;;17.70;99.90;;;;;;5103690;27;20053;-88
2022/07/31 01:19:49;;;;;;;4.53;3.50;;;17.70;99.90;;;;;;5069549;27;20051;-88
2022/07/31 01:22:26;;;;;;;7.03;4.18;;;17.70;99.90;;;;;;5073669;27;20047;-88
2022/07/31 01:25:20;;;;;;;7.72;4.18;;;17.70;99.90;;;;;;5081181;28;20062;-88
2022/07/31 01:27:57;;;;;;;;;;;17.70;99.90;;;;;;5070676;27;20046;-87
2022/07/31 01:30:31;;;;;;;5.95;4.03;;;17.70;99.90;;;;;;5084103;27;20729;-88
2022/07/31 01:33:05;;;;;;;6.40;4.18;;;17.70;99.90;;;;;;5069729;27;20036;-89
2022/07/31 01:35:41;;;;;;;6.13;3.80;;;17.70;99.90;;;;;;5078835;28;20811;-87
2022/07/31 01:38:15;;;;;;;5.90;4.30;;;17.70;99.90;;;;;;5078035;27;20145;-88
2022/07/31 01:40:49;;;;;;;6.28;4.40;;;17.70;99.90;;;;;;5081809;27;20080;-88
2022/07/31 01:43:21;;;;;;;7.50;4.35;;;17.80;99.90;;;;;;5062973;28;20070;-88
2022/07/31 01:45:50;;;;;;;;;;;17.80;99.90;;;;;;5046730;28;20050;-88
2022/07/31 01:48:18;;;;;;;7.75;4.28;;;17.80;99.90;;;;;;5080103;28;19934;-88
2022/07/31 01:50:48;;;;;;;6.10;4.50;;;17.70;99.90;;;;;;5063256;28;20043;-88
2022/07/31 01:53:18;;;;;;;6.95;4.40;;;17.80;99.90;;;;;;5080916;28;20047;-87
2022/07/31 01:55:50;;;;;;;6.82;4.45;;;17.80;99.90;;;;;;5045189;28;20079;-88
2022/07/31 01:58:19;;;;;;;6.30;3.88;;;17.80;99.90;;;;;;5069499;28;20075;-88
2022/07/31 02:00:48;;;;;;;8.63;4.82;;;17.80;99.90;;;;;;5091559;28;20049;-88
2022/07/31 02:03:16;;;;;;;5.63;4.18;;;17.80;99.90;;;;;;5084750;28;20039;-88
2022/07/31 02:05:44;;;;;;;6.22;4.57;;;17.80;99.90;;;;;;5090798;28;20542;-88
2022/07/31 02:08:14;;;;;;;6.03;3.80;;;17.80;99.90;;;;;;5059074;28;20045;-88
2022/07/31 02:10:46;;;;;;;6.32;4.65;;;17.80;99.90;;;;;;5057079;28;20127;-89
2022/07/31 02:13:16;;;;;;;5.07;4.22;;;17.80;99.90;;;;;;5078735;28;20086;-89
2022/07/31 02:15:44;;;;;;;6.18;4.57;;;17.80;99.90;;;;;;5097524;27;20084;-89
2022/07/31 02:18:13;;;;;;;8.55;4.60;;;17.80;99.90;;;;;;5057804;28;20040;-88
2022/07/31 02:20:50;;;;;;;7.10;5.05;;;17.80;99.90;;;;;;5052142;28;20043;-88
2022/07/31 02:23:17;;;;;;;4.50;4.03;;;17.80;99.90;;;;;;5070861;28;20402;-89
2022/07/31 02:25:46;;;;;;;6.88;5.22;;;17.70;99.90;;;;;;5075980;28;20050;-90
2022/07/31 02:28:19;;;;;;;5.05;4.07;;;17.80;99.90;;;;;;5052258;28;20035;-85
2022/07/31 02:30:47;;;;;;;7.78;4.65;;;17.80;99.90;;;;;;5086632;28;20043;-88
2022/07/31 02:33:23;;;;;;;5.97;4.53;;;17.70;99.90;;;;;;5051332;28;20071;-89
2022/07/31 02:35:52;;;;;;;5.82;4.72;;;17.80;99.90;;;;;;5063925;28;20126;-88
2022/07/31 02:38:21;;;;;;;7.75;4.57;;;17.80;99.90;;;;;;5051649;28;20088;-89
2022/07/31 02:40:49;;;;;;;5.85;4.40;;;17.70;99.90;;;;;;5050255;28;20096;-88
2022/07/31 02:43:16;;;;;;;6.35;5.05;;;17.70;99.90;;;;;;5047922;28;20056;-88
2022/07/31 02:45:43;;;;;;;5.88;4.50;;;17.70;99.90;;;;;;5065733;28;20111;-88
2022/07/31 02:48:13;;;;;;;8.60;4.70;;;17.70;99.90;;;;;;5053690;28;20051;-88
2022/07/31 02:50:45;;;;;;;6.00;4.72;;;17.70;99.90;;;;;;5047299;28;20092;-89
2022/07/31 02:53:12;;;;;;;5.78;4.75;;;17.70;99.90;;;;;;5050798;28;20039;-89
2022/07/31 02:55:39;;;;;;;6.53;4.68;;;17.70;99.90;;;;;;5042561;28;20044;-88
2022/07/31 02:58:07;;;;;;;7.85;5.03;;;17.60;99.90;;;;;;5050168;28;20078;-89
2022/07/31 03:00:34;;;;;;;8.00;6.32;;;17.60;99.90;;;;;;5032443;28;20130;-87
2022/07/31 03:03:01;;;;;;;6.18;5.13;;;17.60;99.90;;;;;;5059940;28;20109;-87
2022/07/31 03:05:28;;;;;;;7.97;6.28;;;17.60;99.90;;;;;;5069428;28;20040;-89
2022/07/31 03:07:56;;;;;;;8.30;5.68;;;17.60;99.90;;;;;;5054208;28;20415;-88
2022/07/31 03:10:22;;;;;;;7.57;6.55;;;17.50;99.90;;;;;;5055552;28;20559;-89
2022/07/31 03:13:02;;;;;;;7.10;5.57;;;17.50;99.90;;;;;;5072376;28;20511;-88
2022/07/31 03:15:30;;;;;;;9.07;5.72;;;17.50;99.90;;;;;;5022787;28;20047;-89
2022/07/31 03:17:58;;;;;;;8.40;5.63;;;17.60;99.90;;;;;;5068850;28;20048;-89
2022/07/31 03:20:38;;;;;;;8.18;5.10;;;17.50;99.90;;;;;;5054817;28;20048;-88
2022/07/31 03:23:06;;;;;;;7.32;5.63;;;17.60;99.90;;;;;;5057233;28;20424;-88
2022/07/31 03:25:40;;;;;;;5.63;4.88;;;17.50;99.90;;;;;;5075914;28;20096;-89
2022/07/31 03:28:08;;;;;;;6.13;5.30;;;17.60;99.90;;;;;;5049212;28;20040;-88
2022/07/31 03:30:34;;;;;;;6.65;4.85;;;17.60;99.90;;;;;;5050961;28;20040;-87
2022/07/31 03:33:02;;;;;;;7.22;4.82;;;17.50;99.90;;;;;;5071969;28;20069;-87
2022/07/31 03:35:29;;;;;;;5.80;4.82;;;17.60;99.90;;;;;;5069727;28;20079;-88
2022/07/31 03:37:55;;;;;;;6.30;5.40;;;17.60;99.90;;;;;;5054981;28;20068;-89
2022/07/31 03:40:22;;;;;;;6.95;5.53;;;17.50;99.90;;;;;;5040287;28;20184;-88
2022/07/31 03:42:49;;;;;;;10.50;5.13;;;17.50;99.90;;;;;;5059742;28;20067;-89
2022/07/31 03:45:16;;;;;;;7.78;5.50;;;17.50;99.90;;;;;;5051826;28;20117;-90
2022/07/31 03:47:42;;;;;;;9.48;5.82;;;17.50;99.90;;;;;;5054426;28;20245;-89
2022/07/31 03:50:10;;;;;;;6.93;5.38;;;17.40;99.90;;;;;;5054003;28;20055;-89
2022/07/31 03:52:37;;;;;;;6.97;5.32;;;17.40;99.90;;;;;;5059691;28;20054;-88
2022/07/31 03:55:06;;;;;;;6.15;5.55;;;17.40;99.90;;;;;;5055136;28;20101;-88
2022/07/31 03:57:33;;;;;;;7.68;6.05;;;17.40;99.90;;;;;;5092045;28;20093;-88
2022/07/31 04:00:01;;;;;;;7.07;5.75;;;17.40;99.90;;;;;;5078985;28;20273;-89
2022/07/31 04:02:30;;;;;;;7.63;5.00;;;17.40;99.90;;;;;;5058791;28;20046;-89
2022/07/31 04:05:08;;;;;;;8.20;5.57;;;17.40;99.90;;;;;;5073490;28;20075;-89
2022/07/31 04:07:34;;;;;;;7.60;6.13;;;17.30;99.90;;;;;;5057075;28;20071;-90
2022/07/31 04:10:01;;;;;;;7.10;5.45;;;17.40;99.90;;;;;;5057415;28;20534;-90
2022/07/31 04:12:29;;;;;;;7.15;5.80;;;17.40;99.90;;;;;;5055065;28;20047;-89
2022/07/31 04:14:55;;;;;;;10.27;5.82;;;17.30;99.90;;;;;;5039780;28;20066;-89
2022/07/31 04:17:21;;;;;;;6.57;5.97;;;17.30;99.90;;;;;;5073549;28;20126;-89
2022/07/31 04:19:48;;;;;;;8.63;6.30;;;17.40;99.90;;;;;;5047793;28;20078;-88
2022/07/31 04:22:15;;;;;;;9.52;5.78;;;17.40;99.90;;;;;;5066468;28;20043;-89
2022/07/31 04:24:42;;;;;;;6.72;5.65;;;17.40;99.90;;;;;;5106977;27;20044;-89
2022/07/31 04:27:30;;;;;;;8.45;5.65;;;17.50;99.90;;;;;;5061502;28;20047;-89
2022/07/31 04:29:58;;;;;;;6.85;5.88;;;17.50;99.90;;;;;;5073536;28;20040;-89
2022/07/31 04:32:24;;;;;;;9.50;6.05;;;17.50;99.90;;;;;;5071141;28;20310;-88
2022/07/31 04:35:08;;;;;;;12.20;6.32;;;17.50;99.90;;;;;;5024628;28;20051;-88
2022/07/31 04:37:34;;;;;;;8.65;6.07;;;17.50;99.90;;;;;;5018732;28;20544;-88
2022/07/31 04:40:02;;;;;;;7.13;6.40;;;17.50;99.90;;;;;;5080368;28;20135;-87
2022/07/31 04:42:29;;;;;;;6.75;6.05;;;17.50;99.90;;;;;;5075628;28;20055;-89
2022/07/31 04:44:55;;;;;;;8.35;6.50;;;17.60;99.90;;;;;;5051745;28;20784;-88
2022/07/31 04:47:21;;;;;;;7.28;5.70;;;17.60;99.90;;;;;;5045965;27;20155;-88
2022/07/31 04:49:49;;;;;;;6.65;5.95;;;17.60;99.90;;;;;;5070500;28;20048;-89
2022/07/31 04:52:16;;;;;;;7.32;6.20;;;17.60;99.90;;;;;;5034029;28;20502;-88
2022/07/31 04:54:45;;;;;;;7.05;6.32;;;17.60;99.90;;;;;;5070911;28;20411;-88
2022/07/31 04:57:13;;;;;;;7.35;6.20;;;17.60;99.90;;;;;;5069966;28;20051;-89
2022/07/31 04:59:39;;;;;;;6.90;6.22;;;17.70;99.90;;;;;;5067951;28;20487;-88
2022/07/31 05:02:05;;;;;;;7.80;6.25;;;17.60;99.90;;;;;;5045741;28;20147;-88
2022/07/31 05:04:31;;;;;;;7.35;6.05;;;17.50;99.90;;;;;;5034429;28;20101;-89
2022/07/31 05:06:58;;;;;;;6.60;5.45;;;17.60;99.90;;;;;;5056883;28;20071;-89
2022/07/31 05:09:28;;;;;;;7.72;4.95;;;17.60;99.90;;;;;;5038354;27;20035;-88
2022/07/31 05:11:59;;;;;;;6.88;5.85;;;17.70;99.90;;;;;;5037957;28;20390;-88
2022/07/31 05:14:26;;;;;;;9.13;5.60;;;17.70;99.90;;;;;;5050644;28;20043;-88
2022/07/31 05:16:53;;;;;;;8.20;5.40;;;17.80;99.90;;;;;;5050452;28;20340;-88
2022/07/31 05:19:20;;;;;;;8.02;5.07;;;17.80;99.90;;;;;;5048079;28;20039;-89
2022/07/31 05:22:06;;;;;;;8.52;5.53;;;17.90;99.90;;;;;;5058897;28;20419;-88
2022/07/31 05:24:41;;;;;;;7.55;5.20;;;18.00;99.90;;;;;;5053751;28;20039;-88
2022/07/31 05:27:11;;;;;;;6.35;5.35;;;18.00;99.90;;;;;;5045206;28;20040;-88
2022/07/31 05:29:40;;;;;;;7.05;5.45;;;18.10;99.90;;;;;;5044723;28;20044;-88
2022/07/31 05:32:06;;;;;;;7.68;5.00;;;18.10;99.90;;;;;;5066223;28;20139;-89
2022/07/31 05:34:34;;;;;;;7.75;5.82;;;18.20;99.90;;;;;;5048423;28;20128;-87
2022/07/31 05:37:01;;;;;;;9.02;5.25;;;18.30;99.90;;;;;;5023183;28;20082;-87
2022/07/31 05:39:29;;;;;;;6.25;5.13;;;18.30;99.90;;;;;;5065348;28;20044;-86
2022/07/31 05:42:17;;;;;;;6.03;5.30;;;18.40;99.90;;;;;;5077863;27;20506;-86
2022/07/31 05:45:07;;;;;;;6.75;4.85;;;18.40;99.90;;;;;;5084244;27;20050;-87
2022/07/31 05:47:37;;;;;;;6.75;5.70;;;18.50;99.90;;;;;;5074944;27;20079;-85
2022/07/31 05:50:04;;;;;;;7.68;5.93;;;18.50;99.90;;;;;;5107745;28;20032;-84
2022/07/31 05:52:31;;;;;;;6.15;4.95;;;18.60;99.90;;;;;;5070631;27;20132;-84
2022/07/31 05:55:29;;;;;;;6.60;5.32;;;18.60;99.90;;;;;;5077115;27;20490;-85
2022/07/31 05:58:11;;;;;;;8.07;6.03;;;18.60;99.90;;;;;;5103571;27;20047;-86
2022/07/31 06:00:38;;;;;;;6.40;5.57;;;18.70;99.90;;;;;;5087932;28;20100;-85
2022/07/31 06:03:04;;;;;;;7.20;5.53;;;18.70;99.90;;;;;;5085648;27;20039;-84
2022/07/31 06:05:49;;;;;;;7.45;5.63;;;18.70;99.90;;;;;;5105381;27;20037;-86
2022/07/31 06:08:16;;;;;;;7.97;6.00;;;18.70;99.90;;;;;;5066275;28;20043;-87
2022/07/31 06:10:45;;;;;;;6.97;6.28;;;18.70;99.90;;;;;;5070199;27;20064;-85
2022/07/31 06:13:13;;;;;;;8.02;5.70;;;18.80;99.90;;;;;;5056676;27;20048;-88
2022/07/31 06:15:42;;;;;;;7.55;5.78;;;18.80;99.90;;;;;;5100634;27;20055;-89
2022/07/31 06:18:09;;;;;;;7.13;6.25;;;18.90;99.90;;;;;;5057062;27;20043;-86
2022/07/31 06:20:36;;;;;;;7.43;6.50;;;18.90;99.90;;;;;;5083084;27;20047;-92
2022/07/31 06:23:02;;;;;;;8.80;5.97;;;19.00;99.90;;;;;;5065205;27;20920;-89
2022/07/31 06:25:34;;;;;;;8.60;6.07;;;19.00;99.90;;;;;;5083204;28;20077;-85
2022/07/31 06:28:00;;;;;;;7.05;5.88;;;19.00;99.90;;;;;;5101904;27;20039;-86
2022/07/31 06:30:26;;;;;;;8.52;6.03;;;19.10;99.90;;;;;;5049909;28;20127;-84
2022/07/31 06:32:53;;;;;;;8.68;5.68;;;19.10;99.90;;;;;;5043980;28;20134;-84
2022/07/31 06:35:19;;;;;;;7.55;6.85;;;19.10;99.90;;;;;;5045401;28;20043;-85
2022/07/31 06:38:11;;;;;;;7.22;6.55;;;19.20;99.90;;;;;;5075639;28;20043;-89
2022/07/31 06:40:57;;;;;;;7.43;6.45;;;19.30;99.90;;;;;;5078047;28;20266;-88
2022/07/31 06:43:37;;;;;;;9.20;5.75;;;19.40;99.90;;;;;;5072469;28;20055;-88
2022/07/31 06:46:39;;;;;;;7.55;6.70;;;19.50;99.90;;;;;;5086812;28;20043;-88
2022/07/31 06:49:32;;;;;;;7.03;6.30;;;19.70;99.90;;;;;;5068167;28;20108;-88
2022/07/31 06:51:58;;;;;;;9.50;5.95;;;19.70;99.90;;;;;;5068756;28;20088;-87
2022/07/31 06:54:24;;;;;;;6.97;6.15;;;19.80;99.90;;;;;;5034169;28;20189;-85
2022/07/31 06:56:50;;;;;;;7.68;5.57;;;19.90;99.90;;;;;;5049196;28;20046;-87
2022/07/31 06:59:16;;;;;;;8.10;6.15;;;19.90;99.90;;;;;;5086133;28;20055;-92
2022/07/31 07:01:43;;;;;;;7.82;6.90;;;19.90;99.90;;;;;;5083112;28;20050;-88
2022/07/31 07:04:09;;;;;;;7.63;6.00;;;19.90;99.90;;;;;;5067849;28;20099;-82
2022/07/31 07:06:35;;;;;;;6.95;6.25;;;19.90;99.90;;;;;;5067655;28;20050;-83
2022/07/31 07:09:02;;;;;;;8.32;5.85;;;19.90;99.90;;;;;;5088273;28;20513;-91
2022/07/31 07:11:28;;;;;;;7.18;6.25;;;20.00;99.90;;;;;;5074477;28;20035;-90
2022/07/31 07:13:54;;;;;;;9.63;6.43;;;20.00;99.90;;;;;;5051905;28;20046;-85
2022/07/31 07:16:23;;;;;;;7.45;6.28;;;20.00;99.90;;;;;;5068300;28;20035;-85
2022/07/31 07:18:49;;;;;;;7.32;6.10;;;20.10;99.90;;;;;;5062782;28;20604;-86
2022/07/31 07:21:16;;;;;;;7.22;6.53;;;20.00;99.90;;;;;;5061778;28;20063;-85
2022/07/31 07:23:43;;;;;;;6.97;5.82;;;20.10;99.90;;;;;;5106652;27;20039;-88
2022/07/31 07:26:27;;;;;;;8.98;7.07;;;20.10;99.90;;;;;;5070459;27;20058;-85
2022/07/31 07:28:53;;;;;;;8.38;6.43;;;20.10;99.90;;;;;;5086030;28;20682;-86
2022/07/31 07:31:22;;;;;;;8.18;7.38;;;20.20;99.90;;;;;;5064354;27;20196;-84
2022/07/31 07:33:50;;;;;;;8.45;6.43;;;20.10;99.90;;;;;;5065436;28;20191;-88
2022/07/31 07:36:23;;;;;;;9.20;7.13;;;20.20;99.90;;;;;;5032642;27;20485;-84
2022/07/31 07:38:50;;;;;;;8.23;7.43;;;20.30;99.90;;;;;;5047878;27;20039;-84
2022/07/31 07:41:18;;;;;;;9.30;6.40;;;20.40;99.90;;;;;;5063881;27;20372;-85
2022/07/31 07:43:44;;;;;;;9.65;7.22;;;20.60;99.90;;;;;;5073198;27;20062;-84
2022/07/31 07:46:10;;;;;;;9.18;7.43;;;20.70;99.90;;;;;;5073787;27;20163;-85
2022/07/31 07:48:40;;;;;;;8.13;7.30;;;20.70;99.90;;;;;;5086877;27;20835;-88
2022/07/31 07:51:16;;;;;;;7.53;6.72;;;20.70;99.90;;;;;;5092324;27;20123;-83
2022/07/31 07:54:00;;;;;;;9.43;8.52;;;20.80;99.90;;;;;;5097641;27;20091;-83
2022/07/31 07:56:45;;;;;;;10.95;7.90;;;20.90;99.90;;;;;;5090344;27;20047;-84
2022/07/31 08:00:00;;;;;;;9.00;8.13;;;21.10;99.90;;;;;;5104451;27;20094;-83
2022/07/31 08:02:54;;;;;;;8.65;7.43;;;21.40;99.90;;;;;;5105276;27;20043;-83
2022/07/31 08:05:21;;;;;;;9.60;8.57;;;21.30;99.90;;;;;;5122428;27;20764;-84
2022/07/31 08:07:47;;;;;;;10.20;8.23;;;21.40;99.90;;;;;;5062966;27;20038;-83
2022/07/31 08:10:28;;;;;;;10.75;8.90;;;21.30;99.90;;;;;;5102940;27;20035;-82
2022/07/31 08:13:14;;;;;;;10.65;9.20;;;21.30;99.90;;;;;;5091629;27;20077;-83
2022/07/31 08:16:01;;;;;;;9.82;8.75;;;21.20;99.90;;;;;;5092827;27;20039;-84
2022/07/31 08:18:32;;;;;;;12.70;8.85;;;21.30;99.90;;;;;;5096052;27;20058;-83
2022/07/31 08:20:58;;;;;;;10.40;9.02;;;21.40;99.90;;;;;;5089805;27;20150;-83
2022/07/31 08:23:24;;;;;;;11.13;9.35;;;21.50;99.90;;;;;;5057614;27;20828;-82
2022/07/31 08:25:53;;;;;;;10.02;9.00;;;21.50;99.90;;;;;;5076605;27;20038;-84
2022/07/31 08:28:23;;;;;;;11.15;8.73;;;21.60;99.90;;;;;;5084135;27;20050;-85
2022/07/31 08:30:49;;;;;;;10.95;9.00;;;21.80;99.90;;;;;;5081194;27;20039;-85
2022/07/31 08:33:18;;;;;;;11.73;10.30;;;21.80;99.90;;;;;;5062262;27;20145;-85
2022/07/31 08:35:52;;;;;;;10.95;9.85;;;21.80;99.90;;;;;;5042457;27;20122;-84
2022/07/31 08:38:20;;;;;;;11.45;9.82;;;21.80;99.90;;;;;;5090869;27;20561;-84
2022/07/31 08:41:07;;;;;;;10.25;9.25;;;21.80;99.90;;;;;;5084913;27;20078;-84
2022/07/31 08:43:33;;;;;;;10.60;8.82;;;21.80;99.90;;;;;;5062138;27;20054;-82
2022/07/31 08:46:04;;;;;;;9.65;8.65;;;22.00;99.90;;;;;;5097275;27;20038;-85
2022/07/31 08:48:40;;;;;;;8.88;8.00;;;22.00;99.90;;;;;;5089135;27;20059;-84
2022/07/31 08:51:10;;;;;;;9.63;8.13;;;21.90;99.90;;;;;;5069518;27;20046;-83
2022/07/31 08:53:56;;;;;;;9.85;8.65;;;21.80;99.90;;;;;;5086641;27;20055;-82
2022/07/31 08:56:24;;;;;;;11.32;9.23;;;21.60;99.90;;;;;;5096334;27;20561;-83
2022/07/31 08:58:50;;;;;;;10.65;8.65;;;21.60;99.90;;;;;;5091974;27;20072;-83
2022/07/31 09:01:17;;;;;;;12.23;9.20;;;21.40;99.90;;;;;;5044687;27;20579;-84
2022/07/31 09:03:44;;;;;;;11.85;8.95;;;21.40;99.90;;;;;;5055815;27;20039;-83
2022/07/31 09:06:12;;;;;;;10.20;9.10;;;21.30;99.90;;;;;;5105479;27;20629;-83
2022/07/31 09:08:39;;;;;;;10.27;8.68;;;21.20;99.90;;;;;;5083810;27;20454;-83
2022/07/31 09:11:10;;;;;;;9.40;8.50;;;21.10;99.90;;;;;;5059623;27;20161;-83
2022/07/31 09:13:56;;;;;;;12.05;9.85;;;21.10;99.90;;;;;;5084284;27;20608;-83
2022/07/31 09:16:49;;;;;;;11.35;10.05;;;20.90;99.90;;;;;;5087356;27;21790;-82
2022/07/31 09:19:16;;;;;;;11.02;9.85;;;20.80;99.90;;;;;;5071868;27;20034;-82
2022/07/31 09:21:44;;;;;;;11.50;10.27;;;20.80;99.90;;;;;;5066646;27;20490;-83
2022/07/31 09:24:25;;;;;;;10.60;9.55;;;20.70;99.90;;;;;;5072900;27;20044;-83
2022/07/31 09:27:00;;;;;;;14.00;10.93;;;20.60;99.90;;;;;;5092046;27;20035;-83
2022/07/31 09:29:40;;;;;;;11.23;10.05;;;20.60;99.90;;;;;;5091941;27;20050;-85
2022/07/31 09:32:19;;;;;;;11.85;10.52;;;20.50;99.90;;;;;;5093013;27;20038;-84
2022/07/31 09:35:13;;;;;;;12.57;11.38;;;20.50;99.90;;;;;;5105342;27;20042;-84
2022/07/31 09:37:45;;;;;;;13.85;12.40;;;20.40;99.90;;;;;;5113518;27;20050;-81
2022/07/31 09:40:36;;;;;;;13.25;11.95;;;20.30;99.90;;;;;;5128550;27;20046;-82
2022/07/31 09:43:33;;;;;;;12.73;11.43;;;20.40;99.90;;;;;;5105599;27;20066;-83
2022/07/31 09:46:00;;;;;;;14.32;12.93;;;20.30;99.90;;;;;;5073487;27;20043;-86
2022/07/31 09:48:27;;;;;;;17.30;13.25;;;20.40;99.90;;;;;;5083291;27;20054;-85
2022/07/31 09:50:56;;;;;;;14.85;13.35;;;20.40;99.90;;;;;;5082424;27;20494;-84
2022/07/31 09:53:26;;;;;;;16.80;14.93;;;20.40;99.90;;;;;;5078288;27;20038;-88
2022/07/31 09:56:07;;;;;;;16.92;15.15;;;20.40;99.90;;;;;;5094840;27;20280;-86
2022/07/31 09:58:33;;;;;;;17.17;15.40;;;20.50;99.90;;;;;;5041525;27;20047;-85
2022/07/31 10:01:01;;;;;;;17.80;16.00;;;20.50;99.90;;;;;;5084026;27;20039;-86
2022/07/31 10:03:29;;;;;;;16.80;15.23;;;20.50;99.90;;;;;;5076403;27;20122;-85
2022/07/31 10:05:57;;;;;;;15.88;14.35;;;20.60;99.90;;;;;;5075498;27;20104;-85
2022/07/31 10:08:25;;;;;;;14.25;13.02;;;20.60;99.90;;;;;;5080555;27;20399;-87
2022/07/31 10:11:19;;;;;;;18.10;16.20;;;20.50;99.90;;;;;;5091380;27;20054;-87
2022/07/31 10:13:59;;;;;;;16.92;15.20;;;20.70;99.90;;;;;;5068411;27;20076;-87
2022/07/31 10:16:31;;;;;;;17.63;14.70;;;20.70;99.90;;;;;;5067755;27;20131;-85
2022/07/31 10:19:17;;;;;;;15.00;13.48;;;20.90;99.90;;;;;;5086753;27;20043;-89
2022/07/31 10:22:02;;;;;;;15.70;14.23;;;21.00;99.90;;;;;;5068875;27;20049;-86
2022/07/31 10:24:34;;;;;;;16.70;13.88;;;21.20;99.90;;;;;;5071010;27;20103;-87
2022/07/31 10:27:01;;;;;;;15.15;13.75;;;21.30;99.90;;;;;;5076925;27;20046;-88
2022/07/31 10:29:28;;;;;;;14.90;13.50;;;21.40;99.90;;;;;;5060682;27;20553;-87
2022/07/31 10:31:55;;;;;;;14.73;13.30;;;21.50;99.90;;;;;;5062461;27;20039;-87
2022/07/31 10:34:22;;;;;;;16.80;15.00;;;21.50;99.90;;;;;;5036636;27;20043;-87
2022/07/31 10:37:35;;;;;;;14.30;12.95;;;21.40;99.90;;;;;;5084949;27;20377;-86
2022/07/31 10:41:02;;;;;;;14.02;12.80;;;21.50;99.90;;;;;;5059001;27;20525;-87
2022/07/31 10:43:42;;;;;;;15.13;13.73;;;21.50;99.90;;;;;;5100757;27;20043;-88
2022/07/31 10:46:32;;;;;;;15.60;14.10;;;21.40;99.90;;;;;;5089478;27;20042;-88
2022/07/31 10:49:17;;;;;;;14.15;12.85;;;21.40;99.90;;;;;;5076093;27;20075;-87
2022/07/31 10:52:34;;;;;;;14.82;13.32;;;21.40;99.90;;;;;;5108144;27;20054;-90
2022/07/31 10:55:34;;;;;;;15.40;13.98;;;21.50;99.90;;;;;;5073325;27;20050;-93
2022/07/31 10:58:29;;;;;;;15.20;13.70;;;21.60;99.90;;;;;;5098745;27;20405;-87
2022/07/31 11:01:08;;;;;;;15.48;14.02;;;21.70;99.90;;;;;;5089606;27;20058;-91
2022/07/31 11:03:59;;;;;;;14.57;13.07;;;21.60;99.90;;;;;;5065764;27;20040;-88
2022/07/31 11:06:47;;;;;;;14.40;13.00;;;21.50;99.90;;;;;;5080146;27;20523;-92
2022/07/31 11:09:40;;;;;;;15.98;14.18;;;21.50;99.90;;;;;;5083012;27;20046;-87
2022/07/31 11:12:29;;;;;;;16.40;14.75;;;21.40;99.90;;;;;;5058296;27;20100;-88
2022/07/31 11:15:22;;;;;;;16.25;14.68;;;21.30;99.90;;;;;;5074739;27;20043;-89
2022/07/31 11:18:15;;;;;;;17.15;15.65;;;21.20;99.90;;;;;;5084037;27;20074;-88
2022/07/31 11:21:00;;;;;;;17.15;15.35;;;21.30;99.90;;;;;;5073384;27;20414;-89
2022/07/31 11:23:29;;;;;;;18.27;16.55;;;21.10;99.90;;;;;;5067247;27;20043;-88
2022/07/31 11:25:59;;;;;;;18.65;17.08;;;21.00;99.90;;;;;;5050039;27;20031;-88
2022/07/31 11:28:25;;;;;;;20.13;18.20;;;21.00;99.90;;;;;;5088098;27;20050;-88
2022/07/31 11:31:00;;;;;;;19.48;17.65;;;20.90;99.90;;;;;;5071384;27;20175;-88
2022/07/31 11:33:40;;;;;;;22.45;19.73;;;20.70;99.90;;;;;;5082821;27;20074;-89
2022/07/31 11:36:10;;;;;;;21.20;19.10;;;20.50;99.90;;;;;;5067302;27;20391;-86
2022/07/31 11:38:38;;;;;;;23.00;20.80;;;20.30;99.90;;;;;;5071195;27;20095;-88
2022/07/31 11:41:05;;;;;;;24.27;21.70;;;20.10;99.90;;;;;;5084725;27;20244;-88
2022/07/31 11:43:33;;;;;;;25.85;22.45;;;19.90;99.90;;;;;;5087577;27;20503;-89
2022/07/31 11:46:01;;;;;;;26.60;23.90;;;19.70;99.90;;;;;;5073038;27;20043;-89
2022/07/31 11:48:31;;;;;;;30.65;26.10;;;19.60;99.90;;;;;;5071216;27;20544;-90
2022/07/31 11:51:00;;;;;;;31.38;28.13;;;19.50;99.90;;;;;;5099760;27;20043;-84
2022/07/31 11:53:27;;;;;;;32.33;28.73;;;19.30;99.90;;;;;;5072938;27;20046;-88
2022/07/31 11:55:56;;;;;;;32.80;29.30;;;19.20;99.90;;;;;;5085785;27;20051;-87
2022/07/31 11:58:24;;;;;;;34.30;30.75;;;19.20;99.90;;;;;;5074279;27;20125;-82
2022/07/31 12:00:59;;;;;;;32.95;29.40;;;19.10;99.90;;;;;;5083679;27;21276;-86
2022/07/31 12:03:35;;;;;;;41.20;36.92;;;19.10;99.90;;;;;;5040511;27;20085;-88
2022/07/31 12:06:03;;;;;;;35.55;32.03;;;19.10;99.90;;;;;;5072659;27;20605;-87
2022/07/31 12:08:36;;;;;;;41.03;36.83;;;19.10;99.90;;;;;;5073426;27;20034;-87
2022/07/31 12:11:08;;;;;;;35.45;31.88;;;19.30;99.90;;;;;;5087446;27;20045;-87
2022/07/31 12:13:35;;;;;;;39.17;35.38;;;19.30;99.90;;;;;;5070640;27;20035;-89
2022/07/31 12:16:07;;;;;;;34.60;30.95;;;19.30;99.90;;;;;;5075181;27;20117;-89
2022/07/31 12:18:55;;;;;;;39.47;35.38;;;19.30;99.90;;;;;;5079153;27;20122;-88
2022/07/31 12:21:32;;;;;;;38.17;33.92;;;19.40;99.90;;;;;;5074365;27;20042;-87
2022/07/31 12:23:59;;;;;;;36.15;32.45;;;19.50;99.90;;;;;;5094145;27;20031;-89
2022/07/31 12:26:31;;;;;;;37.58;33.55;;;19.50;99.90;;;;;;5094233;27;20066;-88
2022/07/31 12:29:08;;;;;;;37.40;33.55;;;19.60;99.90;;;;;;5082802;27;20030;-90
2022/07/31 12:31:52;;;;;;;37.47;33.50;;;19.70;99.90;;;;;;5052798;27;20066;-82
2022/07/31 12:34:25;;;;;;;36.03;32.67;;;19.70;99.90;;;;;;5091284;27;20083;-88
2022/07/31 12:37:12;;;;;;;41.75;36.40;;;19.70;99.90;;;;;;5091363;27;20038;-90
2022/07/31 12:39:51;;;;;;;40.85;36.45;;;19.80;99.90;;;;;;5075143;27;20046;-90
2022/07/31 12:42:25;;;;;;;36.35;32.55;;;20.00;99.90;;;;;;5089772;27;20051;-90
2022/07/31 12:44:54;;;;;;;37.28;33.30;;;20.10;99.90;;;;;;5070432;27;20053;-90
2022/07/31 12:47:25;;;;;;;37.50;33.67;;;20.10;99.90;;;;;;5074097;27;20042;-88
2022/07/31 12:49:53;;;;;;;40.35;36.40;;;20.10;99.90;;;;;;5070517;27;20126;-89
2022/07/31 12:52:19;;;;;;;37.15;32.70;;;20.10;99.90;;;;;;5093300;27;20117;-89
2022/07/31 12:54:46;;;;;;;38.78;34.97;;;19.90;99.90;;;;;;5072600;27;20292;-89
2022/07/31 12:57:20;;;;;;;41.03;36.47;;;19.80;99.90;;;;;;5089034;27;20043;-90
2022/07/31 12:59:46;;;;;;;40.92;36.85;;;19.80;99.90;;;;;;5066434;27;20108;-90
2022/07/31 13:02:20;;;;;;;39.00;35.03;;;19.80;99.90;;;;;;5092219;27;20079;-90
2022/07/31 13:04:47;;;;;;;41.40;37.30;;;19.80;99.90;;;;;;5089762;27;20059;-88
2022/07/31 13:07:13;;;;;;;42.70;38.47;;;19.80;99.90;;;;;;5069546;27;20043;-88